createdAt,value
2022-11-26T00:02:18.810Z,7.30
2022-11-26T00:04:47.138Z,7.20
2022-11-26T00:07:21.570Z,7.20
2022-11-26T00:09:51.298Z,7.20
2022-11-26T00:12:24.662Z,7.20
2022-11-26T00:14:52.881Z,7.20
2022-11-26T00:17:21.796Z,7.20
2022-11-26T00:19:50.164Z,7.20
2022-11-26T00:22:25.305Z,7.20
2022-11-26T00:24:55.137Z,7.20
2022-11-26T00:27:25.804Z,7.30
2022-11-26T00:29:54.739Z,7.30
2022-11-26T00:32:25.075Z,7.30
2022-11-26T00:34:53.386Z,7.30
2022-11-26T00:37:24.165Z,7.30
2022-11-26T00:39:54.479Z,7.30
2022-11-26T00:42:22.759Z,7.30
2022-11-26T00:44:50.912Z,7.30
2022-11-26T00:47:19.136Z,7.30
2022-11-26T00:49:47.205Z,7.30
2022-11-26T00:52:27.491Z,7.30
2022-11-26T00:54:57.060Z,7.30
2022-11-26T00:57:25.416Z,7.30
2022-11-26T00:59:53.554Z,7.30
2022-11-26T01:02:21.676Z,7.30
2022-11-26T01:04:49.847Z,7.30
2022-11-26T01:07:18.069Z,7.30
2022-11-26T01:09:48.369Z,7.40
2022-11-26T01:12:19.779Z,7.40
2022-11-26T01:14:47.956Z,7.30
2022-11-26T01:17:16.185Z,7.30
2022-11-26T01:19:44.370Z,7.30
2022-11-26T01:22:21.270Z,7.30
2022-11-26T01:24:49.534Z,7.40
2022-11-26T01:27:21.458Z,7.30
2022-11-26T01:29:49.591Z,7.40
2022-11-26T01:32:17.747Z,7.30
2022-11-26T01:34:45.790Z,7.40
2022-11-26T01:37:14.739Z,7.40
2022-11-26T01:39:42.925Z,7.40
2022-11-26T01:42:25.891Z,7.30
2022-11-26T01:44:54.007Z,7.40
2022-11-26T01:47:24.287Z,7.30
2022-11-26T01:50:29.871Z,7.40
2022-11-26T01:53:00.912Z,7.40
2022-11-26T01:55:34.002Z,7.40
2022-11-26T01:58:04.986Z,7.50
2022-11-26T02:00:33.296Z,7.50
2022-11-26T02:03:02.480Z,7.40
2022-11-26T02:05:35.756Z,7.40
2022-11-26T02:08:04.338Z,7.50
2022-11-26T02:10:32.434Z,7.40
2022-11-26T02:13:00.546Z,7.40
2022-11-26T02:15:42.003Z,7.40
2022-11-26T02:18:10.950Z,7.30
2022-11-26T02:20:49.543Z,7.40
2022-11-26T02:23:43.955Z,7.30
2022-11-26T02:26:43.752Z,7.30
2022-11-26T02:29:18.657Z,7.40
2022-11-26T02:31:52.823Z,7.40
2022-11-26T02:34:28.895Z,7.40
2022-11-26T02:37:00.717Z,7.40
2022-11-26T02:39:31.580Z,7.40
2022-11-26T02:42:02.238Z,7.40
2022-11-26T02:44:34.845Z,7.40
2022-11-26T02:47:08.797Z,7.40
2022-11-26T02:49:41.743Z,7.40
2022-11-26T02:52:12.503Z,7.40
2022-11-26T02:54:42.935Z,7.40
2022-11-26T02:57:15.079Z,7.40
2022-11-26T02:59:43.959Z,7.40
2022-11-26T03:02:17.334Z,7.50
2022-11-26T03:04:49.960Z,7.50
2022-11-26T03:07:18.868Z,7.50
2022-11-26T03:09:53.258Z,7.50
2022-11-26T03:12:22.255Z,7.50
2022-11-26T03:14:50.579Z,7.50
2022-11-26T03:17:20.845Z,7.40
2022-11-26T03:19:49.037Z,7.50
2022-11-26T03:22:17.427Z,7.40
2022-11-26T03:24:45.646Z,7.50
2022-11-26T03:27:13.761Z,7.50
2022-11-26T03:29:41.955Z,7.40
2022-11-26T03:32:10.042Z,7.50
2022-11-26T03:34:39.733Z,7.50
2022-11-26T03:37:08.152Z,7.50
2022-11-26T03:39:36.521Z,7.50
2022-11-26T03:42:04.872Z,7.50
2022-11-26T03:44:33.268Z,7.50
2022-11-26T03:47:01.389Z,7.50
2022-11-26T03:49:29.498Z,7.50
2022-11-26T03:51:59.124Z,7.50
2022-11-26T03:54:28.546Z,7.50
2022-11-26T03:56:56.739Z,7.50
2022-11-26T03:59:24.881Z,7.50
2022-11-26T04:01:53.086Z,7.50
2022-11-26T04:04:21.246Z,7.50
2022-11-26T04:06:49.405Z,7.50
2022-11-26T04:09:18.957Z,7.60
2022-11-26T04:11:48.541Z,7.60
2022-11-26T04:14:16.730Z,7.70
2022-11-26T04:16:44.864Z,7.70
2022-11-26T04:19:13.029Z,7.70
2022-11-26T04:21:41.183Z,7.70
2022-11-26T04:24:09.719Z,7.60
2022-11-26T04:26:39.210Z,7.70
2022-11-26T04:29:07.509Z,7.70
2022-11-26T04:31:35.690Z,7.70
2022-11-26T04:34:03.953Z,7.70
2022-11-26T04:36:32.851Z,7.70
2022-11-26T04:39:01.001Z,7.70
2022-11-26T04:41:29.173Z,7.70
2022-11-26T04:43:58.683Z,7.80
2022-11-26T04:46:26.791Z,7.80
2022-11-26T04:48:55.047Z,7.80
2022-11-26T04:51:23.152Z,7.80
2022-11-26T04:53:55.482Z,7.80
2022-11-26T04:56:25.194Z,7.80
2022-11-26T04:58:53.283Z,7.80
2022-11-26T05:01:22.820Z,7.90
2022-11-26T05:03:51.089Z,7.80
2022-11-26T05:06:19.275Z,7.80
2022-11-26T05:08:47.372Z,7.80
2022-11-26T05:11:15.503Z,7.80
2022-11-26T05:13:43.627Z,7.80
2022-11-26T05:16:11.843Z,7.80
2022-11-26T05:18:41.615Z,7.80
2022-11-26T05:21:09.750Z,7.80
2022-11-26T05:23:37.903Z,7.80
2022-11-26T05:26:06.183Z,7.80
2022-11-26T05:28:34.358Z,7.80
2022-11-26T05:31:03.346Z,7.80
2022-11-26T05:33:31.552Z,7.70
2022-11-26T05:36:01.448Z,7.70
2022-11-26T05:38:29.931Z,7.70
2022-11-26T05:40:58.101Z,7.70
2022-11-26T05:43:26.363Z,7.70
2022-11-26T05:45:57.213Z,7.70
2022-11-26T05:48:25.335Z,7.70
2022-11-26T05:50:58.912Z,7.70
2022-11-26T05:53:30.383Z,7.70
2022-11-26T05:55:59.186Z,7.70
2022-11-26T05:58:27.555Z,7.60
2022-11-26T06:00:55.829Z,7.60
2022-11-26T06:03:24.087Z,7.60
2022-11-26T06:05:52.524Z,7.60
2022-11-26T06:08:20.737Z,7.60
2022-11-26T06:10:50.266Z,7.60
2022-11-26T06:13:18.400Z,7.60
2022-11-26T06:15:46.526Z,7.70
2022-11-26T06:18:14.649Z,7.60
2022-11-26T06:20:42.750Z,7.60
2022-11-26T06:23:11.061Z,7.60
2022-11-26T06:25:41.141Z,7.60
2022-11-26T06:28:10.695Z,7.60
2022-11-26T06:30:38.866Z,7.60
2022-11-26T06:33:07.045Z,7.60
2022-11-26T06:35:36.026Z,7.60
2022-11-26T06:38:04.631Z,7.60
2022-11-26T06:40:32.881Z,7.60
2022-11-26T06:43:01.069Z,7.60
2022-11-26T06:45:30.934Z,7.60
2022-11-26T06:47:59.035Z,7.70
2022-11-26T06:50:27.179Z,7.70
2022-11-26T06:52:56.107Z,7.70
2022-11-26T06:55:24.292Z,7.70
2022-11-26T06:57:53.078Z,7.70
2022-11-26T07:00:22.219Z,7.70
2022-11-26T07:02:51.766Z,7.70
2022-11-26T07:05:20.337Z,7.70
2022-11-26T07:07:48.562Z,7.70
2022-11-26T07:10:16.872Z,7.70
2022-11-26T07:12:45.007Z,7.70
2022-11-26T07:15:13.347Z,7.80
2022-11-26T07:17:41.485Z,7.70
2022-11-26T07:20:12.158Z,7.80
2022-11-26T07:22:40.244Z,7.80
2022-11-26T07:25:12.505Z,7.80
2022-11-26T07:27:41.625Z,7.70
2022-11-26T07:30:11.094Z,7.80
2022-11-26T07:32:39.300Z,7.80
2022-11-26T07:35:08.383Z,7.80
2022-11-26T07:37:37.893Z,7.80
2022-11-26T07:40:07.610Z,7.80
2022-11-26T07:42:35.806Z,7.80
2022-11-26T07:45:04.826Z,7.80
2022-11-26T07:47:33.001Z,7.80
2022-11-26T07:50:01.405Z,7.80
2022-11-26T07:52:29.641Z,7.80
2022-11-26T07:54:59.094Z,7.90
2022-11-26T07:57:27.323Z,7.90
2022-11-26T07:59:55.469Z,7.80
2022-11-26T08:02:23.631Z,7.80
2022-11-26T08:04:51.959Z,7.80
2022-11-26T08:07:24.629Z,7.90
2022-11-26T08:09:58.430Z,7.90
2022-11-26T08:12:26.934Z,7.90
2022-11-26T08:14:55.060Z,7.90
2022-11-26T08:17:23.341Z,7.90
2022-11-26T08:19:51.453Z,7.90
2022-11-26T08:22:19.587Z,7.90
2022-11-26T08:24:49.822Z,8.00
2022-11-26T08:27:19.326Z,8.00
2022-11-26T08:29:47.442Z,8.10
2022-11-26T08:32:15.540Z,8.00
2022-11-26T08:34:43.731Z,8.00
2022-11-26T08:37:11.818Z,8.00
2022-11-26T08:39:40.514Z,8.00
2022-11-26T08:42:08.739Z,8.10
2022-11-26T08:44:38.523Z,8.10
2022-11-26T08:47:06.764Z,8.00
2022-11-26T08:49:34.881Z,8.00
2022-11-26T08:52:02.998Z,8.10
2022-11-26T08:54:31.193Z,8.10
2022-11-26T08:56:59.344Z,8.20
2022-11-26T08:59:27.456Z,8.20
2022-11-26T09:01:57.008Z,8.20
2022-11-26T09:04:25.127Z,8.10
2022-11-26T09:06:53.292Z,8.20
2022-11-26T09:09:21.562Z,8.20
2022-11-26T09:11:53.841Z,8.30
2022-11-26T09:14:24.866Z,8.20
2022-11-26T09:16:54.664Z,8.30
2022-11-26T09:19:24.351Z,8.20
2022-11-26T09:21:52.508Z,8.10
2022-11-26T09:24:21.295Z,8.10
2022-11-26T09:26:49.757Z,8.20
2022-11-26T09:29:20.396Z,8.20
2022-11-26T09:32:21.337Z,8.20
2022-11-26T09:34:39.421Z,8.20
2022-11-26T09:37:07.943Z,8.20
2022-11-26T09:39:36.205Z,8.20
2022-11-26T09:42:07.188Z,8.20
2022-11-26T09:44:57.469Z,8.20
2022-11-26T09:47:28.905Z,8.30
2022-11-26T09:50:04.691Z,8.40
2022-11-26T09:52:39.227Z,8.40
2022-11-26T09:55:16.311Z,8.50
2022-11-26T09:57:49.189Z,8.40
2022-11-26T10:00:24.737Z,8.50
2022-11-26T10:02:54.583Z,8.40
2022-11-26T10:05:31.711Z,8.30
2022-11-26T10:08:08.749Z,8.40
2022-11-26T10:10:49.806Z,8.30
2022-11-26T10:13:23.383Z,8.30
2022-11-26T10:16:00.706Z,8.40
2022-11-26T10:18:38.933Z,8.40
2022-11-26T10:21:26.838Z,8.30
2022-11-26T10:24:01.206Z,8.30
2022-11-26T10:26:31.536Z,8.20
2022-11-26T10:29:16.918Z,8.30
2022-11-26T10:31:48.759Z,8.30
2022-11-26T10:34:20.281Z,8.20
2022-11-26T10:36:50.191Z,8.30
2022-11-26T10:39:20.447Z,8.30
2022-11-26T10:41:48.875Z,8.30
2022-11-26T10:44:33.658Z,8.30
2022-11-26T10:47:23.632Z,8.30
2022-11-26T10:49:53.275Z,8.40
2022-11-26T10:52:25.975Z,8.40
2022-11-26T10:55:27.957Z,8.50
2022-11-26T10:58:02.389Z,8.50
2022-11-26T11:00:35.585Z,8.50
2022-11-26T11:03:05.642Z,8.60
2022-11-26T11:05:35.789Z,8.50
2022-11-26T11:08:05.364Z,8.60
2022-11-26T11:10:34.477Z,8.50
2022-11-26T11:13:09.757Z,8.40
2022-11-26T11:15:40.373Z,8.40
2022-11-26T11:18:20.428Z,8.30
2022-11-26T11:20:57.306Z,8.30
2022-11-26T11:23:52.324Z,8.20
2022-11-26T11:26:21.025Z,8.10
2022-11-26T11:28:51.257Z,8.10
2022-11-26T11:31:20.932Z,8.10
2022-11-26T11:33:50.241Z,8.10
2022-11-26T11:36:29.558Z,8.10
2022-11-26T11:39:00.986Z,8.20
2022-11-26T11:41:33.397Z,8.10
2022-11-26T11:44:06.823Z,8.10
2022-11-26T11:47:02.203Z,8.10
2022-11-26T11:49:43.947Z,8.10
2022-11-26T11:52:22.350Z,8.10
2022-11-26T11:55:00.121Z,8.30
2022-11-26T11:57:46.027Z,8.30
2022-11-26T12:00:17.397Z,8.20
2022-11-26T12:03:14.956Z,8.20
2022-11-26T12:05:50.569Z,8.10
2022-11-26T12:08:37.900Z,8.00
2022-11-26T12:11:24.316Z,8.10
2022-11-26T12:13:57.522Z,8.10
2022-11-26T12:16:28.624Z,8.10
2022-11-26T12:19:01.935Z,8.30
2022-11-26T12:21:35.872Z,8.20
2022-11-26T12:24:09.288Z,8.30
2022-11-26T12:26:45.074Z,8.40
2022-11-26T12:29:22.178Z,8.30
2022-11-26T12:31:54.634Z,8.30
2022-11-26T12:34:26.930Z,8.30
2022-11-26T12:36:59.471Z,8.40
2022-11-26T12:39:38.458Z,8.40
2022-11-26T12:42:17.407Z,8.40
2022-11-26T12:44:49.900Z,8.50
2022-11-26T12:47:25.304Z,8.50
2022-11-26T12:50:04.328Z,8.50
2022-11-26T12:52:39.522Z,8.40
2022-11-26T12:55:18.203Z,8.50
2022-11-26T12:57:52.271Z,8.40
2022-11-26T13:00:26.718Z,8.40
2022-11-26T13:02:57.511Z,8.50
2022-11-26T13:05:33.558Z,8.50
2022-11-26T13:08:28.530Z,8.50
2022-11-26T13:11:14.730Z,8.40
2022-11-26T13:13:50.662Z,8.40
2022-11-26T13:16:26.255Z,8.40
2022-11-26T13:18:59.227Z,8.40
2022-11-26T13:21:47.217Z,8.30
2022-11-26T13:24:37.143Z,8.40
2022-11-26T13:27:20.939Z,8.50
2022-11-26T13:30:06.478Z,8.40
2022-11-26T13:32:55.119Z,8.40
2022-11-26T13:35:33.637Z,8.30
2022-11-26T13:38:22.331Z,8.30
2022-11-26T13:41:01.187Z,8.30
2022-11-26T13:44:08.042Z,8.30
2022-11-26T13:46:41.268Z,8.30
2022-11-26T13:49:15.101Z,8.30
2022-11-26T13:51:48.599Z,8.30
2022-11-26T13:54:21.020Z,8.30
2022-11-26T13:56:50.329Z,8.20
2022-11-26T13:59:25.357Z,8.20
2022-11-26T14:01:58.225Z,8.10
2022-11-26T14:04:52.300Z,8.20
2022-11-26T14:07:21.250Z,8.20
2022-11-26T14:09:52.931Z,8.10
2022-11-26T14:12:22.707Z,8.10
2022-11-26T14:14:51.468Z,8.10
2022-11-26T14:17:29.920Z,8.10
2022-11-26T14:20:11.840Z,8.10
2022-11-26T14:22:40.471Z,8.10
2022-11-26T14:25:11.636Z,8.10
2022-11-26T14:27:43.439Z,8.10
2022-11-26T14:30:24.513Z,8.00
2022-11-26T14:33:00.213Z,8.00
2022-11-26T14:35:33.942Z,8.10
2022-11-26T14:38:04.804Z,8.00
2022-11-26T14:40:35.473Z,8.00
2022-11-26T14:43:19.431Z,8.00
2022-11-26T14:45:49.803Z,8.10
2022-11-26T14:48:27.215Z,8.10
2022-11-26T14:50:58.479Z,8.00
2022-11-26T14:53:30.021Z,8.10
2022-11-26T14:55:59.293Z,8.00
2022-11-26T14:58:33.899Z,8.00
2022-11-26T15:01:05.220Z,7.90
2022-11-26T15:03:35.725Z,8.00
2022-11-26T15:06:03.950Z,8.00
2022-11-26T15:08:32.150Z,8.00
2022-11-26T15:11:05.253Z,8.00
2022-11-26T15:13:38.544Z,8.00
2022-11-26T15:16:31.544Z,8.00
2022-11-26T15:19:02.113Z,8.00
2022-11-26T15:21:30.847Z,8.00
2022-11-26T15:24:01.596Z,8.10
2022-11-26T15:26:34.418Z,8.00
2022-11-26T15:29:02.605Z,8.00
2022-11-26T15:31:43.675Z,8.00
2022-11-26T15:34:14.206Z,7.90
2022-11-26T15:36:42.432Z,7.90
2022-11-26T15:39:26.080Z,7.90
2022-11-26T15:41:56.770Z,7.80
2022-11-26T15:44:30.263Z,7.80
2022-11-26T15:47:00.683Z,7.80
2022-11-26T15:49:35.537Z,7.70
2022-11-26T15:52:07.276Z,7.70
2022-11-26T15:55:04.785Z,7.70
2022-11-26T15:57:29.058Z,7.70
2022-11-26T16:00:01.918Z,7.60
2022-11-26T16:02:32.956Z,7.70
2022-11-26T16:05:03.329Z,7.70
2022-11-26T16:07:32.852Z,7.60
2022-11-26T16:10:21.339Z,7.70
2022-11-26T16:13:09.511Z,7.70
2022-11-26T16:15:45.040Z,7.70
2022-11-26T16:18:17.662Z,7.70
2022-11-26T16:20:47.459Z,7.70
2022-11-26T16:23:22.970Z,7.70
2022-11-26T16:26:12.461Z,7.60
2022-11-26T16:28:40.683Z,7.60
2022-11-26T16:31:09.407Z,7.60
2022-11-26T16:33:37.774Z,7.60
2022-11-26T16:36:21.455Z,7.70
2022-11-26T16:38:50.269Z,7.70
2022-11-26T16:41:20.502Z,7.70
2022-11-26T16:43:48.895Z,7.70
2022-11-26T16:46:18.894Z,7.70
2022-11-26T16:48:48.306Z,7.70
2022-11-26T16:51:18.274Z,7.70
2022-11-26T16:53:46.655Z,7.70
2022-11-26T16:56:20.875Z,7.70
2022-11-26T16:58:49.994Z,7.70
2022-11-26T17:01:18.157Z,7.70
2022-11-26T17:03:46.503Z,7.80
2022-11-26T17:06:18.827Z,7.80
2022-11-26T17:08:49.716Z,7.80
2022-11-26T17:11:18.488Z,7.80
2022-11-26T17:13:46.955Z,7.80
2022-11-26T17:16:17.240Z,7.90
2022-11-26T17:18:45.746Z,7.90
2022-11-26T17:21:14.118Z,7.90
2022-11-26T17:23:43.744Z,7.80
2022-11-26T17:26:18.914Z,7.80
2022-11-26T17:28:47.283Z,7.80
2022-11-26T17:31:15.854Z,7.80
2022-11-26T17:33:44.519Z,7.80
2022-11-26T17:36:17.321Z,7.90
2022-11-26T17:38:47.707Z,7.90
2022-11-26T17:41:16.759Z,7.90
2022-11-26T17:43:45.142Z,7.80
2022-11-26T17:46:19.241Z,7.90
2022-11-26T17:48:48.000Z,7.90
2022-11-26T17:51:16.550Z,7.90
2022-11-26T17:53:46.405Z,8.00
2022-11-26T17:56:19.104Z,7.90
2022-11-26T17:58:47.842Z,7.90
2022-11-26T18:01:16.639Z,8.00
2022-11-26T18:03:45.238Z,8.00
2022-11-26T18:06:17.332Z,8.00
2022-11-26T18:08:47.477Z,8.00
2022-11-26T18:11:17.283Z,8.00
2022-11-26T18:13:46.181Z,8.00
2022-11-26T18:16:14.380Z,8.00
2022-11-26T18:18:42.592Z,7.90
2022-11-26T18:21:11.613Z,7.80
2022-11-26T18:23:42.031Z,7.80
2022-11-26T18:26:18.013Z,7.70
2022-11-26T18:28:46.230Z,7.70
2022-11-26T18:31:14.465Z,7.70
2022-11-26T18:33:42.717Z,7.70
2022-11-26T18:36:12.298Z,7.80
2022-11-26T18:38:40.557Z,7.80
2022-11-26T18:41:09.425Z,7.80
2022-11-26T18:43:39.882Z,7.80
2022-11-26T18:46:11.460Z,7.90
2022-11-26T18:48:40.978Z,7.90
2022-11-26T18:51:09.243Z,7.90
2022-11-26T18:53:38.045Z,7.90
2022-11-26T18:56:09.020Z,7.80
2022-11-26T18:58:38.840Z,7.80
2022-11-26T19:01:13.510Z,7.80
2022-11-26T19:03:43.964Z,7.80
2022-11-26T19:06:15.298Z,7.80
2022-11-26T19:08:43.661Z,7.80
2022-11-26T19:11:12.946Z,7.80
2022-11-26T19:13:42.714Z,7.80
2022-11-26T19:16:16.711Z,7.80
2022-11-26T19:18:46.369Z,7.70
2022-11-26T19:21:19.712Z,7.70
2022-11-26T19:23:48.271Z,7.70
2022-11-26T19:26:17.149Z,7.70
2022-11-26T19:28:47.425Z,7.70
2022-11-26T19:31:16.951Z,7.70
2022-11-26T19:33:47.447Z,7.80
2022-11-26T19:36:17.766Z,7.80
2022-11-26T19:38:46.604Z,7.80
2022-11-26T19:41:15.409Z,7.70
2022-11-26T19:43:43.738Z,7.70
2022-11-26T19:46:17.795Z,7.70
2022-11-26T19:48:47.961Z,7.70
2022-11-26T19:51:17.514Z,7.70
2022-11-26T19:53:48.767Z,7.70
2022-11-26T19:56:19.435Z,7.70
2022-11-26T19:58:48.056Z,7.70
2022-11-26T20:01:18.994Z,7.70
2022-11-26T20:03:47.268Z,7.70
2022-11-26T20:06:17.971Z,7.70
2022-11-26T20:08:47.111Z,7.70
2022-11-26T20:11:16.864Z,7.80
2022-11-26T20:13:46.058Z,7.70
2022-11-26T20:16:18.211Z,7.70
2022-11-26T20:18:47.058Z,7.80
2022-11-26T20:21:19.606Z,7.70
2022-11-26T20:23:48.076Z,7.70
2022-11-26T20:26:18.846Z,7.80
2022-11-26T20:28:47.028Z,7.80
2022-11-26T20:31:23.040Z,7.80
2022-11-26T20:33:52.541Z,7.80
2022-11-26T20:36:22.853Z,7.80
2022-11-26T20:38:53.540Z,7.80
2022-11-26T20:41:22.113Z,7.90
2022-11-26T20:43:56.521Z,7.90
2022-11-26T20:46:26.879Z,7.90
2022-11-26T20:48:55.105Z,7.80
2022-11-26T20:51:23.726Z,7.80
2022-11-26T20:53:53.267Z,7.80
2022-11-26T20:56:22.874Z,7.80
2022-11-26T20:58:52.978Z,7.80
2022-11-26T21:01:23.442Z,7.80
2022-11-26T21:03:53.437Z,7.80
2022-11-26T21:06:28.970Z,7.80
2022-11-26T21:08:58.346Z,7.70
2022-11-26T21:11:26.705Z,7.80
2022-11-26T21:13:54.800Z,7.80
2022-11-26T21:16:23.373Z,7.70
2022-11-26T21:18:55.180Z,7.70
2022-11-26T21:21:25.138Z,7.70
2022-11-26T21:23:53.794Z,7.70
2022-11-26T21:26:27.667Z,7.80
2022-11-26T21:28:57.818Z,7.80
2022-11-26T21:31:27.451Z,7.80
2022-11-26T21:33:58.939Z,7.80
2022-11-26T21:36:27.800Z,7.80
2022-11-26T21:38:55.979Z,7.80
2022-11-26T21:41:25.135Z,7.70
2022-11-26T21:43:53.408Z,7.80
2022-11-26T21:46:23.431Z,7.90
2022-11-26T21:48:53.152Z,7.90
2022-11-26T21:51:23.854Z,7.90
2022-11-26T21:53:53.900Z,7.80
2022-11-26T21:56:23.804Z,7.80
2022-11-26T21:58:52.666Z,7.80
2022-11-26T22:01:23.630Z,7.80
2022-11-26T22:03:54.854Z,7.80
2022-11-26T22:06:25.193Z,7.80
2022-11-26T22:08:53.798Z,7.90
2022-11-26T22:11:23.754Z,7.90
2022-11-26T22:13:52.367Z,7.90
2022-11-26T22:16:22.774Z,7.80
2022-11-26T22:18:51.657Z,7.80
2022-11-26T22:21:21.984Z,7.80
2022-11-26T22:23:52.395Z,7.80
2022-11-26T22:26:21.209Z,7.80
2022-11-26T22:28:50.137Z,7.80
2022-11-26T22:31:25.763Z,7.80
2022-11-26T22:33:56.554Z,7.80
2022-11-26T22:36:25.372Z,7.80
2022-11-26T22:38:55.217Z,7.80
2022-11-26T22:41:23.893Z,7.80
2022-11-26T22:43:52.362Z,7.80
2022-11-26T22:46:22.981Z,7.90
2022-11-26T22:48:52.576Z,7.80
2022-11-26T22:51:21.277Z,7.90
2022-11-26T22:53:51.504Z,7.90
2022-11-26T22:56:21.800Z,7.80
2022-11-26T22:58:50.379Z,7.90
2022-11-26T23:01:21.663Z,7.90
2022-11-26T23:03:50.994Z,8.00
2022-11-26T23:06:21.019Z,7.90
2022-11-26T23:08:49.782Z,7.90
2022-11-26T23:11:22.673Z,7.90
2022-11-26T23:13:51.799Z,7.90
2022-11-26T23:16:21.734Z,7.80
2022-11-26T23:18:51.418Z,7.80
2022-11-26T23:21:22.429Z,7.80
2022-11-26T23:23:52.878Z,7.90
2022-11-26T23:26:27.301Z,7.80
2022-11-26T23:28:56.256Z,7.80
2022-11-26T23:31:26.132Z,7.70
2022-11-26T23:33:54.826Z,7.80
2022-11-26T23:36:23.414Z,7.80
2022-11-26T23:38:51.716Z,7.80
2022-11-26T23:41:20.127Z,7.80
2022-11-26T23:43:49.617Z,7.80
2022-11-26T23:46:19.628Z,7.80
2022-11-26T23:48:48.370Z,7.80
2022-11-26T23:51:18.757Z,7.80
2022-11-26T23:53:48.351Z,7.80
2022-11-26T23:56:18.736Z,7.90
2022-11-26T23:58:51.010Z,7.90
